sensor_id;sensor_type;location;lat;lon;timestamp;temperature;humidity
19437;DHT22;9854;50.968;4.168;2022-11-15T00:01:35;12.20;99.90
19437;DHT22;9854;50.968;4.168;2022-11-15T00:04:03;12.30;99.90
19437;DHT22;9854;50.968;4.168;2022-11-15T00:06:29;12.50;99.90
19437;DHT22;9854;50.968;4.168;2022-11-15T00:08:57;12.60;99.90
19437;DHT22;9854;50.968;4.168;2022-11-15T00:11:23;12.60;99.90
19437;DHT22;9854;50.968;4.168;2022-11-15T00:13:49;12.50;99.90
19437;DHT22;9854;50.968;4.168;2022-11-15T00:16:14;12.50;99.90
19437;DHT22;9854;50.968;4.168;2022-11-15T00:18:40;12.40;99.90
19437;DHT22;9854;50.968;4.168;2022-11-15T00:21:08;12.30;99.90
19437;DHT22;9854;50.968;4.168;2022-11-15T00:23:34;12.30;99.90
19437;DHT22;9854;50.968;4.168;2022-11-15T00:26:00;12.30;99.90
19437;DHT22;9854;50.968;4.168;2022-11-15T00:28:26;12.30;99.90
19437;DHT22;9854;50.968;4.168;2022-11-15T00:30:51;12.40;99.90
19437;DHT22;9854;50.968;4.168;2022-11-15T00:33:17;12.40;99.90
19437;DHT22;9854;50.968;4.168;2022-11-15T00:35:43;12.50;99.90
19437;DHT22;9854;50.968;4.168;2022-11-15T00:38:08;12.50;99.90
19437;DHT22;9854;50.968;4.168;2022-11-15T00:40:34;12.40;99.90
19437;DHT22;9854;50.968;4.168;2022-11-15T00:43:00;12.60;99.90
19437;DHT22;9854;50.968;4.168;2022-11-15T00:45:25;12.70;99.90
19437;DHT22;9854;50.968;4.168;2022-11-15T00:47:52;12.70;99.90
19437;DHT22;9854;50.968;4.168;2022-11-15T00:50:18;12.70;99.90
19437;DHT22;9854;50.968;4.168;2022-11-15T00:52:44;12.60;99.90
19437;DHT22;9854;50.968;4.168;2022-11-15T00:55:14;12.60;99.90
19437;DHT22;9854;50.968;4.168;2022-11-15T00:57:40;12.60;99.90
19437;DHT22;9854;50.968;4.168;2022-11-15T01:00:07;12.60;99.90
19437;DHT22;9854;50.968;4.168;2022-11-15T01:02:32;12.60;99.90
19437;DHT22;9854;50.968;4.168;2022-11-15T01:04:58;12.60;99.90
19437;DHT22;9854;50.968;4.168;2022-11-15T01:07:24;12.70;99.90
19437;DHT22;9854;50.968;4.168;2022-11-15T01:09:49;12.80;99.90
19437;DHT22;9854;50.968;4.168;2022-11-15T01:12:15;12.90;99.90
19437;DHT22;9854;50.968;4.168;2022-11-15T01:14:40;12.90;99.90
19437;DHT22;9854;50.968;4.168;2022-11-15T01:17:06;12.90;99.90
19437;DHT22;9854;50.968;4.168;2022-11-15T01:19:32;12.90;99.90
19437;DHT22;9854;50.968;4.168;2022-11-15T01:21:57;12.80;99.90
19437;DHT22;9854;50.968;4.168;2022-11-15T01:24:23;13.00;99.90
19437;DHT22;9854;50.968;4.168;2022-11-15T01:26:48;13.00;99.90
19437;DHT22;9854;50.968;4.168;2022-11-15T01:29:14;12.90;99.90
19437;DHT22;9854;50.968;4.168;2022-11-15T01:31:40;13.00;99.90
19437;DHT22;9854;50.968;4.168;2022-11-15T01:34:05;13.00;99.90
19437;DHT22;9854;50.968;4.168;2022-11-15T01:36:31;12.90;99.90
19437;DHT22;9854;50.968;4.168;2022-11-15T01:38:57;12.80;99.90
19437;DHT22;9854;50.968;4.168;2022-11-15T01:41:26;12.90;99.90
19437;DHT22;9854;50.968;4.168;2022-11-15T01:43:53;12.90;99.90
19437;DHT22;9854;50.968;4.168;2022-11-15T01:46:36;12.90;99.90
19437;DHT22;9854;50.968;4.168;2022-11-15T01:49:11;13.00;99.90
19437;DHT22;9854;50.968;4.168;2022-11-15T01:51:37;12.80;99.90
19437;DHT22;9854;50.968;4.168;2022-11-15T01:54:09;12.70;99.90
19437;DHT22;9854;50.968;4.168;2022-11-15T01:56:43;12.70;99.90
19437;DHT22;9854;50.968;4.168;2022-11-15T01:59:10;12.60;99.90
19437;DHT22;9854;50.968;4.168;2022-11-15T02:01:37;12.70;99.90
19437;DHT22;9854;50.968;4.168;2022-11-15T02:04:13;13.00;99.90
19437;DHT22;9854;50.968;4.168;2022-11-15T02:06:41;13.00;99.90
19437;DHT22;9854;50.968;4.168;2022-11-15T02:09:07;13.00;99.90
19437;DHT22;9854;50.968;4.168;2022-11-15T02:11:33;12.90;99.90
19437;DHT22;9854;50.968;4.168;2022-11-15T02:13:59;12.80;99.90
19437;DHT22;9854;50.968;4.168;2022-11-15T02:17:02;12.80;99.90
19437;DHT22;9854;50.968;4.168;2022-11-15T02:20:09;12.60;99.90
19437;DHT22;9854;50.968;4.168;2022-11-15T02:23:03;12.90;99.90
19437;DHT22;9854;50.968;4.168;2022-11-15T02:28:10;12.80;99.90
19437;DHT22;9854;50.968;4.168;2022-11-15T02:33:35;12.70;99.90
19437;DHT22;9854;50.968;4.168;2022-11-15T02:36:15;12.60;99.90
19437;DHT22;9854;50.968;4.168;2022-11-15T02:38:48;12.60;99.90
19437;DHT22;9854;50.968;4.168;2022-11-15T02:41:20;12.60;99.90
19437;DHT22;9854;50.968;4.168;2022-11-15T02:44:05;12.50;99.90
19437;DHT22;9854;50.968;4.168;2022-11-15T02:46:39;12.50;99.90
19437;DHT22;9854;50.968;4.168;2022-11-15T02:49:28;12.60;99.90
19437;DHT22;9854;50.968;4.168;2022-11-15T02:51:55;12.50;99.90
19437;DHT22;9854;50.968;4.168;2022-11-15T02:54:30;12.50;99.90
19437;DHT22;9854;50.968;4.168;2022-11-15T02:57:23;12.60;99.90
19437;DHT22;9854;50.968;4.168;2022-11-15T03:05:15;12.90;99.90
19437;DHT22;9854;50.968;4.168;2022-11-15T03:10:24;12.90;99.90
19437;DHT22;9854;50.968;4.168;2022-11-15T03:12:59;12.90;99.90
19437;DHT22;9854;50.968;4.168;2022-11-15T03:15:36;12.90;99.90
19437;DHT22;9854;50.968;4.168;2022-11-15T03:18:19;12.80;99.90
19437;DHT22;9854;50.968;4.168;2022-11-15T03:20:48;12.80;99.90
19437;DHT22;9854;50.968;4.168;2022-11-15T03:23:14;12.80;99.90
19437;DHT22;9854;50.968;4.168;2022-11-15T03:25:47;12.70;99.90
19437;DHT22;9854;50.968;4.168;2022-11-15T03:28:20;12.60;99.90
19437;DHT22;9854;50.968;4.168;2022-11-15T03:30:49;12.50;99.90
19437;DHT22;9854;50.968;4.168;2022-11-15T03:33:16;12.60;99.90
19437;DHT22;9854;50.968;4.168;2022-11-15T03:35:44;12.60;99.90
19437;DHT22;9854;50.968;4.168;2022-11-15T03:38:13;12.50;99.90
19437;DHT22;9854;50.968;4.168;2022-11-15T03:40:45;12.30;99.90
19437;DHT22;9854;50.968;4.168;2022-11-15T03:44:04;12.30;99.90
19437;DHT22;9854;50.968;4.168;2022-11-15T03:49:20;12.50;99.90
19437;DHT22;9854;50.968;4.168;2022-11-15T03:51:47;12.40;99.90
19437;DHT22;9854;50.968;4.168;2022-11-15T03:54:13;12.40;99.90
19437;DHT22;9854;50.968;4.168;2022-11-15T03:56:39;12.40;99.90
19437;DHT22;9854;50.968;4.168;2022-11-15T03:59:04;12.50;99.90
19437;DHT22;9854;50.968;4.168;2022-11-15T04:01:30;12.50;99.90
19437;DHT22;9854;50.968;4.168;2022-11-15T04:03:56;12.40;99.90
19437;DHT22;9854;50.968;4.168;2022-11-15T04:06:21;12.40;99.90
19437;DHT22;9854;50.968;4.168;2022-11-15T04:08:47;12.30;99.90
19437;DHT22;9854;50.968;4.168;2022-11-15T04:11:12;12.30;99.90
19437;DHT22;9854;50.968;4.168;2022-11-15T04:13:38;12.30;99.90
19437;DHT22;9854;50.968;4.168;2022-11-15T04:16:03;12.30;99.90
19437;DHT22;9854;50.968;4.168;2022-11-15T04:18:29;12.40;99.90
19437;DHT22;9854;50.968;4.168;2022-11-15T04:20:55;12.30;99.90
19437;DHT22;9854;50.968;4.168;2022-11-15T04:23:39;12.30;99.90
19437;DHT22;9854;50.968;4.168;2022-11-15T04:26:23;12.20;99.90
19437;DHT22;9854;50.968;4.168;2022-11-15T04:28:49;12.40;99.90
19437;DHT22;9854;50.968;4.168;2022-11-15T04:31:33;12.50;99.90
19437;DHT22;9854;50.968;4.168;2022-11-15T04:33:59;12.30;99.90
19437;DHT22;9854;50.968;4.168;2022-11-15T04:36:25;12.20;99.90
19437;DHT22;9854;50.968;4.168;2022-11-15T04:39:09;12.30;99.90
19437;DHT22;9854;50.968;4.168;2022-11-15T04:41:35;12.30;99.90
19437;DHT22;9854;50.968;4.168;2022-11-15T04:44:00;12.20;99.90
19437;DHT22;9854;50.968;4.168;2022-11-15T04:46:26;12.20;99.90
19437;DHT22;9854;50.968;4.168;2022-11-15T04:48:52;12.10;99.90
19437;DHT22;9854;50.968;4.168;2022-11-15T04:51:18;12.10;99.90
19437;DHT22;9854;50.968;4.168;2022-11-15T04:53:44;12.10;99.90
19437;DHT22;9854;50.968;4.168;2022-11-15T04:56:10;11.90;99.90
19437;DHT22;9854;50.968;4.168;2022-11-15T04:58:35;12.10;99.90
19437;DHT22;9854;50.968;4.168;2022-11-15T05:01:09;12.10;99.90
19437;DHT22;9854;50.968;4.168;2022-11-15T05:03:34;12.10;99.90
19437;DHT22;9854;50.968;4.168;2022-11-15T05:06:19;12.00;99.90
19437;DHT22;9854;50.968;4.168;2022-11-15T05:08:44;12.10;99.90
19437;DHT22;9854;50.968;4.168;2022-11-15T05:11:10;12.00;99.90
19437;DHT22;9854;50.968;4.168;2022-11-15T05:13:36;12.00;99.90
19437;DHT22;9854;50.968;4.168;2022-11-15T05:16:01;12.00;99.90
19437;DHT22;9854;50.968;4.168;2022-11-15T05:18:27;11.90;99.90
19437;DHT22;9854;50.968;4.168;2022-11-15T05:20:52;11.70;99.90
19437;DHT22;9854;50.968;4.168;2022-11-15T05:23:18;11.60;99.90
19437;DHT22;9854;50.968;4.168;2022-11-15T05:25:44;11.60;99.90
19437;DHT22;9854;50.968;4.168;2022-11-15T05:28:09;11.60;99.90
19437;DHT22;9854;50.968;4.168;2022-11-15T05:30:35;11.60;99.90
19437;DHT22;9854;50.968;4.168;2022-11-15T05:33:00;11.70;99.90
19437;DHT22;9854;50.968;4.168;2022-11-15T05:35:34;11.60;99.90
19437;DHT22;9854;50.968;4.168;2022-11-15T05:38:02;11.60;99.90
19437;DHT22;9854;50.968;4.168;2022-11-15T05:40:29;11.70;99.90
19437;DHT22;9854;50.968;4.168;2022-11-15T05:42:55;11.60;99.90
19437;DHT22;9854;50.968;4.168;2022-11-15T05:45:21;11.70;99.90
19437;DHT22;9854;50.968;4.168;2022-11-15T05:47:47;11.70;99.90
19437;DHT22;9854;50.968;4.168;2022-11-15T05:50:15;11.50;99.90
19437;DHT22;9854;50.968;4.168;2022-11-15T05:52:42;11.70;99.90
19437;DHT22;9854;50.968;4.168;2022-11-15T05:55:08;11.80;99.90
19437;DHT22;9854;50.968;4.168;2022-11-15T05:57:34;11.70;99.90
19437;DHT22;9854;50.968;4.168;2022-11-15T06:00:01;11.80;99.90
19437;DHT22;9854;50.968;4.168;2022-11-15T06:02:27;11.70;99.90
19437;DHT22;9854;50.968;4.168;2022-11-15T06:04:52;11.60;99.90
19437;DHT22;9854;50.968;4.168;2022-11-15T06:07:18;11.60;99.90
19437;DHT22;9854;50.968;4.168;2022-11-15T06:09:43;11.60;99.90
19437;DHT22;9854;50.968;4.168;2022-11-15T06:12:09;11.80;99.90
19437;DHT22;9854;50.968;4.168;2022-11-15T06:14:35;12.00;99.90
19437;DHT22;9854;50.968;4.168;2022-11-15T06:17:00;11.90;99.90
19437;DHT22;9854;50.968;4.168;2022-11-15T06:19:26;11.70;99.90
19437;DHT22;9854;50.968;4.168;2022-11-15T06:21:51;11.60;99.90
19437;DHT22;9854;50.968;4.168;2022-11-15T06:24:17;11.60;99.90
19437;DHT22;9854;50.968;4.168;2022-11-15T06:26:42;11.50;99.90
19437;DHT22;9854;50.968;4.168;2022-11-15T06:29:08;11.40;99.90
19437;DHT22;9854;50.968;4.168;2022-11-15T06:31:34;11.40;99.90
19437;DHT22;9854;50.968;4.168;2022-11-15T06:34:00;11.10;99.90
19437;DHT22;9854;50.968;4.168;2022-11-15T06:36:26;10.90;99.90
19437;DHT22;9854;50.968;4.168;2022-11-15T06:38:51;11.00;99.90
19437;DHT22;9854;50.968;4.168;2022-11-15T06:41:17;11.10;99.90
19437;DHT22;9854;50.968;4.168;2022-11-15T06:43:43;11.00;99.90
19437;DHT22;9854;50.968;4.168;2022-11-15T06:46:08;11.20;99.90
19437;DHT22;9854;50.968;4.168;2022-11-15T06:48:34;11.40;99.90
19437;DHT22;9854;50.968;4.168;2022-11-15T06:51:02;11.30;99.90
19437;DHT22;9854;50.968;4.168;2022-11-15T06:53:29;11.20;99.90
19437;DHT22;9854;50.968;4.168;2022-11-15T06:56:02;11.20;99.90
19437;DHT22;9854;50.968;4.168;2022-11-15T06:58:28;11.20;99.90
19437;DHT22;9854;50.968;4.168;2022-11-15T07:00:57;11.20;99.90
19437;DHT22;9854;50.968;4.168;2022-11-15T07:03:23;11.20;99.90
19437;DHT22;9854;50.968;4.168;2022-11-15T07:05:56;11.00;99.90
19437;DHT22;9854;50.968;4.168;2022-11-15T07:08:23;11.00;99.90
19437;DHT22;9854;50.968;4.168;2022-11-15T07:10:49;10.90;99.90
19437;DHT22;9854;50.968;4.168;2022-11-15T07:13:15;11.00;99.90
19437;DHT22;9854;50.968;4.168;2022-11-15T07:15:41;11.00;99.90
19437;DHT22;9854;50.968;4.168;2022-11-15T07:18:06;11.00;99.90
19437;DHT22;9854;50.968;4.168;2022-11-15T07:20:32;11.00;99.90
19437;DHT22;9854;50.968;4.168;2022-11-15T07:23:04;11.00;99.90
19437;DHT22;9854;50.968;4.168;2022-11-15T07:25:30;11.00;99.90
19437;DHT22;9854;50.968;4.168;2022-11-15T07:27:57;11.00;99.90
19437;DHT22;9854;50.968;4.168;2022-11-15T07:30:24;10.90;99.90
19437;DHT22;9854;50.968;4.168;2022-11-15T07:32:54;10.90;99.90
19437;DHT22;9854;50.968;4.168;2022-11-15T07:35:20;10.90;99.90
19437;DHT22;9854;50.968;4.168;2022-11-15T07:37:56;10.70;99.90
19437;DHT22;9854;50.968;4.168;2022-11-15T07:40:23;10.70;99.90
19437;DHT22;9854;50.968;4.168;2022-11-15T07:42:48;10.70;99.90
19437;DHT22;9854;50.968;4.168;2022-11-15T07:45:22;10.80;99.90
19437;DHT22;9854;50.968;4.168;2022-11-15T07:47:49;10.70;99.90
19437;DHT22;9854;50.968;4.168;2022-11-15T07:50:16;10.60;99.90
19437;DHT22;9854;50.968;4.168;2022-11-15T07:52:42;10.80;99.90
19437;DHT22;9854;50.968;4.168;2022-11-15T07:55:08;10.80;99.90
19437;DHT22;9854;50.968;4.168;2022-11-15T07:57:33;10.80;99.90
19437;DHT22;9854;50.968;4.168;2022-11-15T07:59:59;10.90;99.90
19437;DHT22;9854;50.968;4.168;2022-11-15T08:02:25;10.80;99.90
19437;DHT22;9854;50.968;4.168;2022-11-15T08:04:50;10.90;99.90
19437;DHT22;9854;50.968;4.168;2022-11-15T08:07:16;10.90;99.90
19437;DHT22;9854;50.968;4.168;2022-11-15T08:09:42;11.00;99.90
19437;DHT22;9854;50.968;4.168;2022-11-15T08:12:07;10.90;99.90
19437;DHT22;9854;50.968;4.168;2022-11-15T08:14:34;10.90;99.90
19437;DHT22;9854;50.968;4.168;2022-11-15T08:17:00;11.00;99.90
19437;DHT22;9854;50.968;4.168;2022-11-15T08:19:25;11.10;99.90
19437;DHT22;9854;50.968;4.168;2022-11-15T08:21:51;11.10;99.90
19437;DHT22;9854;50.968;4.168;2022-11-15T08:24:16;11.10;99.90
19437;DHT22;9854;50.968;4.168;2022-11-15T08:26:42;11.10;99.90
19437;DHT22;9854;50.968;4.168;2022-11-15T08:29:08;11.10;99.90
19437;DHT22;9854;50.968;4.168;2022-11-15T08:31:34;11.20;99.90
19437;DHT22;9854;50.968;4.168;2022-11-15T08:34:02;11.30;99.90
19437;DHT22;9854;50.968;4.168;2022-11-15T08:36:28;11.40;99.90
19437;DHT22;9854;50.968;4.168;2022-11-15T08:38:53;11.40;99.90
19437;DHT22;9854;50.968;4.168;2022-11-15T08:41:32;11.40;99.90
19437;DHT22;9854;50.968;4.168;2022-11-15T08:43:59;11.40;99.90
19437;DHT22;9854;50.968;4.168;2022-11-15T08:46:24;11.40;99.90
19437;DHT22;9854;50.968;4.168;2022-11-15T08:48:50;11.40;99.90
19437;DHT22;9854;50.968;4.168;2022-11-15T08:51:16;11.50;99.90
19437;DHT22;9854;50.968;4.168;2022-11-15T08:53:42;11.40;99.90
19437;DHT22;9854;50.968;4.168;2022-11-15T08:56:12;11.50;99.90
19437;DHT22;9854;50.968;4.168;2022-11-15T08:58:38;11.60;99.90
19437;DHT22;9854;50.968;4.168;2022-11-15T09:01:04;11.70;99.90
19437;DHT22;9854;50.968;4.168;2022-11-15T09:03:30;11.80;99.90
19437;DHT22;9854;50.968;4.168;2022-11-15T09:05:58;11.80;99.90
19437;DHT22;9854;50.968;4.168;2022-11-15T09:08:25;11.70;99.90
19437;DHT22;9854;50.968;4.168;2022-11-15T09:10:51;11.70;99.90
19437;DHT22;9854;50.968;4.168;2022-11-15T09:13:16;11.70;99.90
19437;DHT22;9854;50.968;4.168;2022-11-15T09:15:42;11.80;99.90
19437;DHT22;9854;50.968;4.168;2022-11-15T09:18:08;11.90;99.90
19437;DHT22;9854;50.968;4.168;2022-11-15T09:20:33;12.00;99.90
19437;DHT22;9854;50.968;4.168;2022-11-15T09:23:03;12.10;99.90
19437;DHT22;9854;50.968;4.168;2022-11-15T09:25:29;12.10;99.90
19437;DHT22;9854;50.968;4.168;2022-11-15T09:27:55;12.20;99.90
19437;DHT22;9854;50.968;4.168;2022-11-15T09:30:22;12.30;99.90
19437;DHT22;9854;50.968;4.168;2022-11-15T09:32:48;12.20;99.90
19437;DHT22;9854;50.968;4.168;2022-11-15T09:35:14;12.20;99.90
19437;DHT22;9854;50.968;4.168;2022-11-15T09:37:39;12.30;99.90
19437;DHT22;9854;50.968;4.168;2022-11-15T09:40:12;12.30;99.90
19437;DHT22;9854;50.968;4.168;2022-11-15T09:45:17;12.50;99.90
19437;DHT22;9854;50.968;4.168;2022-11-15T09:48:03;12.40;99.90
19437;DHT22;9854;50.968;4.168;2022-11-15T09:50:48;12.50;99.90
19437;DHT22;9854;50.968;4.168;2022-11-15T09:53:26;12.50;99.90
19437;DHT22;9854;50.968;4.168;2022-11-15T09:55:59;12.60;99.90
19437;DHT22;9854;50.968;4.168;2022-11-15T10:04:01;12.80;99.90
19437;DHT22;9854;50.968;4.168;2022-11-15T10:06:27;12.80;99.90
19437;DHT22;9854;50.968;4.168;2022-11-15T10:11:45;12.90;99.90
19437;DHT22;9854;50.968;4.168;2022-11-15T10:14:22;12.90;99.90
19437;DHT22;9854;50.968;4.168;2022-11-15T10:19:54;13.00;99.90
19437;DHT22;9854;50.968;4.168;2022-11-15T10:22:35;13.00;99.90
19437;DHT22;9854;50.968;4.168;2022-11-15T10:27:33;13.00;99.90
19437;DHT22;9854;50.968;4.168;2022-11-15T10:29:59;13.10;99.90
19437;DHT22;9854;50.968;4.168;2022-11-15T10:32:27;13.10;99.90
19437;DHT22;9854;50.968;4.168;2022-11-15T10:34:53;13.30;99.90
19437;DHT22;9854;50.968;4.168;2022-11-15T10:37:31;13.40;99.90
19437;DHT22;9854;50.968;4.168;2022-11-15T10:40:21;13.40;99.90
19437;DHT22;9854;50.968;4.168;2022-11-15T10:42:48;13.30;99.90
19437;DHT22;9854;50.968;4.168;2022-11-15T10:45:31;13.40;99.90
19437;DHT22;9854;50.968;4.168;2022-11-15T10:48:21;13.60;99.90
19437;DHT22;9854;50.968;4.168;2022-11-15T10:50:49;13.80;99.90
19437;DHT22;9854;50.968;4.168;2022-11-15T10:55:49;14.00;99.90
19437;DHT22;9854;50.968;4.168;2022-11-15T10:58:38;13.90;99.90
19437;DHT22;9854;50.968;4.168;2022-11-15T11:01:18;13.80;99.90
19437;DHT22;9854;50.968;4.168;2022-11-15T11:04:01;13.90;99.90
19437;DHT22;9854;50.968;4.168;2022-11-15T11:06:27;14.10;99.90
19437;DHT22;9854;50.968;4.168;2022-11-15T11:11:22;14.00;99.90
19437;DHT22;9854;50.968;4.168;2022-11-15T11:13:48;14.00;99.90
19437;DHT22;9854;50.968;4.168;2022-11-15T11:16:17;13.90;99.90
19437;DHT22;9854;50.968;4.168;2022-11-15T11:19:18;13.90;99.90
19437;DHT22;9854;50.968;4.168;2022-11-15T11:22:42;14.00;99.90
19437;DHT22;9854;50.968;4.168;2022-11-15T11:25:10;14.00;99.90
19437;DHT22;9854;50.968;4.168;2022-11-15T11:30:24;14.00;99.90
19437;DHT22;9854;50.968;4.168;2022-11-15T11:33:17;14.10;99.90
19437;DHT22;9854;50.968;4.168;2022-11-15T11:36:05;14.20;99.90
19437;DHT22;9854;50.968;4.168;2022-11-15T11:47:11;14.50;99.90
19437;DHT22;9854;50.968;4.168;2022-11-15T11:49:59;14.40;99.90
19437;DHT22;9854;50.968;4.168;2022-11-15T11:55:44;14.30;99.90
19437;DHT22;9854;50.968;4.168;2022-11-15T12:01:09;14.30;99.90
19437;DHT22;9854;50.968;4.168;2022-11-15T12:06:19;14.10;99.90
19437;DHT22;9854;50.968;4.168;2022-11-15T12:14:27;14.20;99.90
19437;DHT22;9854;50.968;4.168;2022-11-15T12:16:55;14.10;99.90
19437;DHT22;9854;50.968;4.168;2022-11-15T12:19:20;14.10;99.90
19437;DHT22;9854;50.968;4.168;2022-11-15T12:24:39;14.20;99.90
19437;DHT22;9854;50.968;4.168;2022-11-15T12:27:19;14.30;99.90
19437;DHT22;9854;50.968;4.168;2022-11-15T12:29:50;14.20;99.90
19437;DHT22;9854;50.968;4.168;2022-11-15T12:32:30;14.30;99.90
19437;DHT22;9854;50.968;4.168;2022-11-15T12:34:57;14.40;99.90
19437;DHT22;9854;50.968;4.168;2022-11-15T12:37:53;14.40;99.90
19437;DHT22;9854;50.968;4.168;2022-11-15T12:40:31;14.50;99.90
19437;DHT22;9854;50.968;4.168;2022-11-15T12:45:41;14.50;99.90
19437;DHT22;9854;50.968;4.168;2022-11-15T12:56:09;14.60;99.90
19437;DHT22;9854;50.968;4.168;2022-11-15T12:58:59;14.60;99.90
19437;DHT22;9854;50.968;4.168;2022-11-15T13:04:21;14.60;99.90
19437;DHT22;9854;50.968;4.168;2022-11-15T13:11:58;15.00;99.90
19437;DHT22;9854;50.968;4.168;2022-11-15T13:17:31;15.00;99.90
19437;DHT22;9854;50.968;4.168;2022-11-15T13:22:28;15.00;99.90
19437;DHT22;9854;50.968;4.168;2022-11-15T13:25:33;15.00;99.90
19437;DHT22;9854;50.968;4.168;2022-11-15T13:33:17;14.90;99.90
19437;DHT22;9854;50.968;4.168;2022-11-15T13:35:50;14.80;99.90
19437;DHT22;9854;50.968;4.168;2022-11-15T13:40:46;14.60;99.90
19437;DHT22;9854;50.968;4.168;2022-11-15T13:43:36;14.50;99.90
19437;DHT22;9854;50.968;4.168;2022-11-15T13:46:06;14.70;99.90
19437;DHT22;9854;50.968;4.168;2022-11-15T13:48:32;14.70;99.90
19437;DHT22;9854;50.968;4.168;2022-11-15T13:51:00;14.70;99.90
19437;DHT22;9854;50.968;4.168;2022-11-15T13:53:27;14.80;99.90
19437;DHT22;9854;50.968;4.168;2022-11-15T13:55:55;14.80;99.90
19437;DHT22;9854;50.968;4.168;2022-11-15T13:58:22;14.80;99.90
19437;DHT22;9854;50.968;4.168;2022-11-15T14:01:02;14.90;99.90
19437;DHT22;9854;50.968;4.168;2022-11-15T14:03:32;14.90;99.90
19437;DHT22;9854;50.968;4.168;2022-11-15T14:06:18;14.80;99.90
19437;DHT22;9854;50.968;4.168;2022-11-15T14:09:13;14.70;99.90
19437;DHT22;9854;50.968;4.168;2022-11-15T14:11:53;14.60;99.90
19437;DHT22;9854;50.968;4.168;2022-11-15T14:14:26;14.60;99.90
19437;DHT22;9854;50.968;4.168;2022-11-15T14:16:54;14.80;99.90
19437;DHT22;9854;50.968;4.168;2022-11-15T14:22:18;14.70;99.90
19437;DHT22;9854;50.968;4.168;2022-11-15T14:25:05;14.80;99.90
19437;DHT22;9854;50.968;4.168;2022-11-15T14:27:32;14.80;99.90
19437;DHT22;9854;50.968;4.168;2022-11-15T14:29:59;14.60;99.90
19437;DHT22;9854;50.968;4.168;2022-11-15T14:32:27;14.40;99.90
19437;DHT22;9854;50.968;4.168;2022-11-15T14:34:59;14.30;99.90
19437;DHT22;9854;50.968;4.168;2022-11-15T14:37:30;14.30;99.90
19437;DHT22;9854;50.968;4.168;2022-11-15T14:40:04;14.20;99.90
19437;DHT22;9854;50.968;4.168;2022-11-15T14:42:29;14.10;99.90
19437;DHT22;9854;50.968;4.168;2022-11-15T14:44:55;14.00;99.90
19437;DHT22;9854;50.968;4.168;2022-11-15T14:47:21;13.90;99.90
19437;DHT22;9854;50.968;4.168;2022-11-15T14:49:47;13.80;99.90
19437;DHT22;9854;50.968;4.168;2022-11-15T14:52:30;13.70;99.90
19437;DHT22;9854;50.968;4.168;2022-11-15T14:54:59;13.60;99.90
19437;DHT22;9854;50.968;4.168;2022-11-15T14:57:26;13.60;99.90
19437;DHT22;9854;50.968;4.168;2022-11-15T14:59:52;13.50;99.90
19437;DHT22;9854;50.968;4.168;2022-11-15T15:02:20;13.40;99.90
19437;DHT22;9854;50.968;4.168;2022-11-15T15:04:46;13.50;99.90
19437;DHT22;9854;50.968;4.168;2022-11-15T15:07:12;13.60;99.90
19437;DHT22;9854;50.968;4.168;2022-11-15T15:09:38;13.70;99.90
19437;DHT22;9854;50.968;4.168;2022-11-15T15:12:04;13.80;99.90
19437;DHT22;9854;50.968;4.168;2022-11-15T15:14:32;13.70;99.90
19437;DHT22;9854;50.968;4.168;2022-11-15T15:16:57;13.50;99.90
19437;DHT22;9854;50.968;4.168;2022-11-15T15:19:23;13.50;99.90
19437;DHT22;9854;50.968;4.168;2022-11-15T15:21:49;13.60;99.90
19437;DHT22;9854;50.968;4.168;2022-11-15T15:24:14;13.60;99.90
19437;DHT22;9854;50.968;4.168;2022-11-15T15:26:40;13.40;99.90
19437;DHT22;9854;50.968;4.168;2022-11-15T15:29:06;13.30;99.90
19437;DHT22;9854;50.968;4.168;2022-11-15T15:31:34;13.30;99.90
19437;DHT22;9854;50.968;4.168;2022-11-15T15:34:00;13.20;99.90
19437;DHT22;9854;50.968;4.168;2022-11-15T15:36:25;13.30;99.90
19437;DHT22;9854;50.968;4.168;2022-11-15T15:38:51;13.20;99.90
19437;DHT22;9854;50.968;4.168;2022-11-15T15:41:17;13.10;99.90
19437;DHT22;9854;50.968;4.168;2022-11-15T15:43:43;13.20;99.90
19437;DHT22;9854;50.968;4.168;2022-11-15T15:46:15;13.10;99.90
19437;DHT22;9854;50.968;4.168;2022-11-15T15:48:41;13.10;99.90
19437;DHT22;9854;50.968;4.168;2022-11-15T15:51:07;13.10;99.90
19437;DHT22;9854;50.968;4.168;2022-11-15T15:53:34;13.20;99.90
19437;DHT22;9854;50.968;4.168;2022-11-15T15:55:59;13.10;99.90
19437;DHT22;9854;50.968;4.168;2022-11-15T15:58:25;13.00;99.90
19437;DHT22;9854;50.968;4.168;2022-11-15T16:00:51;13.00;99.90
19437;DHT22;9854;50.968;4.168;2022-11-15T16:03:17;13.00;99.90
19437;DHT22;9854;50.968;4.168;2022-11-15T16:05:42;13.10;99.90
19437;DHT22;9854;50.968;4.168;2022-11-15T16:08:19;13.00;99.90
19437;DHT22;9854;50.968;4.168;2022-11-15T16:10:45;13.00;99.90
19437;DHT22;9854;50.968;4.168;2022-11-15T16:13:11;13.10;99.90
19437;DHT22;9854;50.968;4.168;2022-11-15T16:15:37;13.10;99.90
19437;DHT22;9854;50.968;4.168;2022-11-15T16:18:04;13.10;99.90
19437;DHT22;9854;50.968;4.168;2022-11-15T16:22:58;13.20;99.90
19437;DHT22;9854;50.968;4.168;2022-11-15T16:25:24;13.10;99.90
19437;DHT22;9854;50.968;4.168;2022-11-15T16:27:50;13.20;99.90
19437;DHT22;9854;50.968;4.168;2022-11-15T16:30:18;13.20;99.90
19437;DHT22;9854;50.968;4.168;2022-11-15T16:32:44;13.20;99.90
19437;DHT22;9854;50.968;4.168;2022-11-15T16:35:11;13.20;99.90
19437;DHT22;9854;50.968;4.168;2022-11-15T16:37:40;13.20;99.90
19437;DHT22;9854;50.968;4.168;2022-11-15T16:40:33;13.20;99.90
19437;DHT22;9854;50.968;4.168;2022-11-15T16:43:00;13.20;99.90
19437;DHT22;9854;50.968;4.168;2022-11-15T16:45:27;13.10;99.90
19437;DHT22;9854;50.968;4.168;2022-11-15T16:47:56;13.20;99.90
19437;DHT22;9854;50.968;4.168;2022-11-15T16:50:27;13.20;99.90
19437;DHT22;9854;50.968;4.168;2022-11-15T16:52:55;13.30;99.90
19437;DHT22;9854;50.968;4.168;2022-11-15T16:55:24;13.30;99.90
19437;DHT22;9854;50.968;4.168;2022-11-15T16:57:50;13.30;99.90
19437;DHT22;9854;50.968;4.168;2022-11-15T17:00:18;13.40;99.90
19437;DHT22;9854;50.968;4.168;2022-11-15T17:02:45;13.40;99.90
19437;DHT22;9854;50.968;4.168;2022-11-15T17:05:12;13.30;99.90
19437;DHT22;9854;50.968;4.168;2022-11-15T17:07:38;13.30;99.90
19437;DHT22;9854;50.968;4.168;2022-11-15T17:10:05;13.30;99.90
19437;DHT22;9854;50.968;4.168;2022-11-15T17:12:33;13.30;99.90
19437;DHT22;9854;50.968;4.168;2022-11-15T17:14:58;13.30;99.90
19437;DHT22;9854;50.968;4.168;2022-11-15T17:17:24;13.30;99.90
19437;DHT22;9854;50.968;4.168;2022-11-15T17:19:51;13.30;99.90
19437;DHT22;9854;50.968;4.168;2022-11-15T17:22:18;13.30;99.90
19437;DHT22;9854;50.968;4.168;2022-11-15T17:24:43;13.40;99.90
19437;DHT22;9854;50.968;4.168;2022-11-15T17:27:09;13.40;99.90
19437;DHT22;9854;50.968;4.168;2022-11-15T17:29:35;13.50;99.90
19437;DHT22;9854;50.968;4.168;2022-11-15T17:32:00;13.50;99.90
19437;DHT22;9854;50.968;4.168;2022-11-15T17:34:26;13.40;99.90
19437;DHT22;9854;50.968;4.168;2022-11-15T17:36:51;13.50;99.90
19437;DHT22;9854;50.968;4.168;2022-11-15T17:39:17;13.50;99.90
19437;DHT22;9854;50.968;4.168;2022-11-15T17:41:45;13.40;99.90
19437;DHT22;9854;50.968;4.168;2022-11-15T17:44:11;13.40;99.90